Gildford, Montana
Current Conditions -  °F | °C
As of 2:53 PM on Friday 24 Oct 2014 (Local Time) from KHVR Reporting Station
Clear Clear  
Wind Chill: 57°   Ceiling: Unl
Heat Index: 57°   Visibility: 10mi
Dew Point: 28°   Wind: 21mph
Humidity: 33%   Direction: 270°W
Pressure: 30"   Gusts: 26mph
Location:  48.56°N, 110.3°W
Report Text: KHVR 242053Z AUTO 27018G23KT 10SM CLR 14/M02 A3000 RMK AO2 PK WND 28028/2029 SLP159 T01391022 56004
Loading
Personal Weather Stations






























Interactive Weather Map
Tropical Storm Tracking
New forecast layout! Learn more

10-Day Weather Forecast

Advertisements
Track Severe Weather on mobile